Time;durP1;ratioP1;P1;durP2;ratioP2;P2;SDS_P1;SDS_P2;PMS_P1;PMS_P2;Temp;Humidity;BMP_temperature;BMP_pressure;BME280_temperature;BME280_humidity;BME280_pressure;Samples;Min_cycle;Max_cycle;Signal;HPM_P1;HPM_P2
2021/10/01 00:01:23;;;;;;;3.70;0.60;;;;;;;9.54;73.33;101531.05;115652;1193;58833;-80
2021/10/01 00:03:50;;;;;;;0.90;0.50;;;;;;;9.51;73.51;101526.18;115670;1193;61200;-80
2021/10/01 00:06:16;;;;;;;2.10;0.60;;;;;;;9.48;73.76;101521.40;115816;1192;59947;-80
2021/10/01 00:08:43;;;;;;;1.80;0.60;;;;;;;9.45;74.09;101522.04;115639;1193;72175;-80
2021/10/01 00:11:09;;;;;;;2.20;0.70;;;;;;;9.46;74.02;101516.46;115793;1192;59063;-80
2021/10/01 00:13:37;;;;;;;4.60;1.30;;;;;;;9.47;74.08;101515.67;115634;1193;59633;-80
2021/10/01 00:16:05;;;;;;;1.70;0.50;;;;;;;9.44;74.16;101514.29;115784;1192;62027;-80
2021/10/01 00:18:31;;;;;;;3.80;1.10;;;;;;;9.44;74.01;101512.02;115917;1192;74699;-80
2021/10/01 00:20:58;;;;;;;2.60;0.80;;;;;;;9.42;74.12;101506.55;115637;1192;72195;-80
2021/10/01 00:23:25;;;;;;;1.00;0.60;;;;;;;9.39;74.57;101503.13;115631;1186;59303;-81
2021/10/01 00:25:51;;;;;;;4.90;1.00;;;;;;;9.36;74.59;101499.39;115634;1193;62670;-81
2021/10/01 00:28:21;;;;;;;2.10;0.60;;;;;;;9.33;74.56;101498.93;115644;1193;60968;-81
2021/10/01 00:30:47;;;;;;;1.20;0.80;;;;;;;9.30;74.63;101496.73;115624;1193;76177;-80
2021/10/01 00:33:14;;;;;;;7.50;0.70;;;;;;;9.27;74.94;101492.64;115763;1192;59077;-81
2021/10/01 00:35:40;;;;;;;3.40;0.70;;;;;;;9.23;75.19;101491.95;115739;1192;73761;-80
2021/10/01 00:38:09;;;;;;;1.70;0.80;;;;;;;9.20;75.37;101486.22;115766;1192;59529;-81
2021/10/01 00:40:36;;;;;;;2.70;0.70;;;;;;;9.18;75.67;101485.73;115583;1193;60532;-81
2021/10/01 00:43:02;;;;;;;3.70;1.00;;;;;;;9.16;75.72;101483.80;115683;1192;74782;-81
2021/10/01 00:45:29;;;;;;;1.20;0.50;;;;;;;9.13;75.75;101483.89;115691;1193;70996;-81
2021/10/01 00:47:56;;;;;;;1.10;0.70;;;;;;;9.12;75.72;101484.41;115978;1193;74196;-81
2021/10/01 00:50:22;;;;;;;4.60;0.70;;;;;;;9.10;76.10;101479.84;115700;1192;61131;-81
2021/10/01 00:52:52;;;;;;;2.30;0.70;;;;;;;9.11;75.99;101482.11;115665;1193;60403;-81
2021/10/01 00:55:19;;;;;;;2.40;0.70;;;;;;;9.12;76.11;101480.00;115758;1192;73990;-81
2021/10/01 00:57:45;;;;;;;2.10;0.70;;;;;;;9.13;75.81;101479.66;115672;1192;71055;-81
2021/10/01 01:00:26;;;;;;;2.00;0.80;;;;;;;9.14;75.99;101475.89;115800;1192;73952;-81
2021/10/01 01:03:03;;;;;;;2.10;0.80;;;;;;;9.14;76.01;101473.77;115920;1192;60120;-81
2021/10/01 01:05:55;;;;;;;3.90;1.00;;;;;;;9.13;75.93;101470.02;115654;1192;60832;-81
2021/10/01 01:08:32;;;;;;;2.20;0.60;;;;;;;9.11;76.03;101470.74;115549;1192;75878;-81
2021/10/01 01:11:09;;;;;;;1.80;0.60;;;;;;;9.08;76.16;101468.70;115703;1193;72268;-81
2021/10/01 01:13:36;;;;;;;2.70;1.30;;;;;;;9.06;76.46;101465.50;115656;1193;72577;-80
2021/10/01 01:16:11;;;;;;;1.90;0.60;;;;;;;9.05;76.51;101468.92;115876;1192;61996;-80
2021/10/01 01:18:40;;;;;;;;;;;;;;;9.04;76.38;101463.59;115668;1192;60588;-80
2021/10/01 01:21:14;;;;;;;3.30;0.70;;;;;;;9.03;76.58;101461.23;115665;1193;73538;-79
2021/10/01 01:23:58;;;;;;;2.00;0.60;;;;;;;9.04;76.56;101456.40;115608;1193;71117;-79
2021/10/01 01:26:52;;;;;;;4.40;1.00;;;;;;;9.04;76.51;101451.09;115683;1192;72568;-79
2021/10/01 01:29:34;;;;;;;3.80;1.80;;;;;;;9.06;76.66;101446.83;115621;1193;60256;-79
2021/10/01 01:32:18;;;;;;;3.30;0.90;;;;;;;9.09;76.60;101443.00;115597;1193;61185;-79
2021/10/01 01:34:51;;;;;;;1.30;0.50;;;;;;;9.14;76.60;101436.18;115632;1193;74603;-79
2021/10/01 01:37:24;;;;;;;1.80;1.10;;;;;;;9.19;76.46;101431.48;115677;1193;71037;-79
2021/10/01 01:39:53;;;;;;;2.90;0.70;;;;;;;9.25;76.28;101428.77;115601;1192;73765;-79
2021/10/01 01:42:20;;;;;;;4.10;1.00;;;;;;;9.28;76.33;101424.54;115696;1192;61056;-79
2021/10/01 01:44:48;;;;;;;4.30;0.80;;;;;;;9.31;76.17;101420.06;115738;1192;60431;-79
2021/10/01 01:47:15;;;;;;;1.20;0.70;;;;;;;9.33;76.32;101421.61;115748;1192;74555;-79
2021/10/01 01:49:44;;;;;;;1.70;0.70;;;;;;;9.34;76.25;101421.64;115723;1192;72447;-79
2021/10/01 01:52:13;;;;;;;3.60;0.80;;;;;;;9.37;76.02;101418.94;115600;1192;72075;-79
2021/10/01 01:54:41;;;;;;;4.50;1.40;;;;;;;9.40;75.88;101415.60;115605;1193;61944;-79
2021/10/01 01:57:08;;;;;;;2.20;0.70;;;;;;;9.43;75.80;101406.53;115736;1192;60086;-79
2021/10/01 01:59:36;;;;;;;3.70;0.70;;;;;;;9.46;75.55;101400.85;115609;1192;75917;-79
2021/10/01 02:02:03;;;;;;;3.00;0.70;;;;;;;9.47;75.39;101399.05;115651;1193;70974;-80
2021/10/01 02:04:31;;;;;;;1.90;0.80;;;;;;;9.50;75.53;101399.34;115758;1192;72605;-80
2021/10/01 02:07:00;;;;;;;1.10;0.60;;;;;;;9.53;75.53;101394.83;115632;1193;59655;-80
2021/10/01 02:09:30;;;;;;;2.80;0.70;;;;;;;9.55;75.17;101398.30;115894;1192;59943;-80
2021/10/01 02:11:57;;;;;;;2.80;0.80;;;;;;;9.59;75.27;101390.13;115640;1192;75717;-80
2021/10/01 02:14:27;;;;;;;1.80;0.70;;;;;;;9.64;74.95;101389.86;115679;1186;70681;-80
2021/10/01 02:16:57;;;;;;;1.40;0.70;;;;;;;9.66;74.80;101388.73;115551;1192;72874;-80
2021/10/01 02:19:29;;;;;;;1.50;0.60;;;;;;;9.69;74.69;101387.02;115633;1193;60006;-80
2021/10/01 02:21:58;;;;;;;3.30;0.60;;;;;;;9.70;74.69;101383.92;115573;1193;60327;-80
2021/10/01 02:24:28;;;;;;;2.00;0.70;;;;;;;9.70;74.74;101385.32;115810;1192;74573;-81
2021/10/01 02:27:16;;;;;;;3.40;1.00;;;;;;;9.70;74.63;101382.48;115639;1186;71416;-81
2021/10/01 02:30:00;;;;;;;4.20;1.00;;;;;;;9.70;74.64;101378.06;115632;1192;72579;-83
2021/10/01 02:32:32;;;;;;;3.00;0.60;;;;;;;9.68;74.61;101378.61;115781;1192;60919;-81
2021/10/01 02:35:00;;;;;;;1.80;0.70;;;;;;;9.66;74.74;101374.25;115721;1192;62708;-81
2021/10/01 02:37:27;;;;;;;6.00;0.80;;;;;;;9.64;74.83;101373.05;115583;1193;75568;-80
2021/10/01 02:39:55;;;;;;;1.00;0.40;;;;;;;9.62;74.98;101370.27;115706;1192;71190;-80
2021/10/01 02:42:24;;;;;;;3.70;0.90;;;;;;;9.61;74.90;101369.33;115877;1192;74162;-81
2021/10/01 02:44:51;;;;;;;3.30;0.60;;;;;;;9.61;74.79;101362.08;115652;1192;62262;-81
2021/10/01 02:47:19;;;;;;;4.70;1.10;;;;;;;9.61;75.07;101355.37;115649;1192;60320;-81
2021/10/01 02:49:46;;;;;;;3.20;0.70;;;;;;;9.61;74.96;101353.72;115839;1192;75234;-80
2021/10/01 02:52:34;;;;;;;1.40;0.60;;;;;;;9.61;75.02;101350.91;116007;1193;70641;-80
2021/10/01 02:55:01;;;;;;;3.20;0.70;;;;;;;9.61;74.97;101350.58;115917;1192;72635;-81
2021/10/01 02:57:34;;;;;;;2.50;1.00;;;;;;;9.61;74.98;101348.83;115619;1193;58881;-80
2021/10/01 03:00:04;;;;;;;2.40;0.60;;;;;;;9.58;75.09;101345.71;115711;1192;61352;-80
2021/10/01 03:02:32;;;;;;;1.60;0.90;;;;;;;9.56;75.32;101343.78;115714;1187;74547;-80
2021/10/01 03:05:01;;;;;;;1.30;0.60;;;;;;;9.55;75.26;101349.86;115642;1192;70964;-80
2021/10/01 03:07:30;;;;;;;1.40;0.50;;;;;;;9.54;75.14;101343.82;115565;1193;72552;-80
2021/10/01 03:09:57;;;;;;;2.40;0.90;;;;;;;9.53;75.21;101342.91;115740;1192;60414;-80
2021/10/01 03:12:25;;;;;;;2.40;0.80;;;;;;;9.50;74.94;101335.23;115808;1192;60224;-81
2021/10/01 03:14:52;;;;;;;1.80;0.70;;;;;;;9.46;74.99;101333.33;115729;1193;74769;-80
2021/10/01 03:17:19;;;;;;;4.70;0.90;;;;;;;9.45;75.21;101334.50;115614;1193;71341;-80
2021/10/01 03:19:48;;;;;;;1.60;0.60;;;;;;;9.45;75.19;101332.55;115686;1193;73567;-80
2021/10/01 03:22:17;;;;;;;1.30;0.60;;;;;;;9.45;75.03;101334.50;115809;1192;63262;-80
2021/10/01 03:24:44;;;;;;;5.00;0.90;;;;;;;9.44;74.97;101336.55;115613;1192;61211;-80
2021/10/01 03:27:11;;;;;;;1.90;0.60;;;;;;;9.43;75.18;101335.58;115876;1192;75593;-80
2021/10/01 03:29:39;;;;;;;4.00;0.80;;;;;;;9.41;75.12;101335.77;115855;1192;71696;-80
2021/10/01 03:32:07;;;;;;;2.00;0.60;;;;;;;9.39;75.16;101336.64;115644;1192;73690;-80
2021/10/01 03:34:33;;;;;;;2.20;0.90;;;;;;;9.38;75.30;101339.23;115615;1192;60580;-80
2021/10/01 03:37:00;;;;;;;3.90;0.70;;;;;;;9.38;75.10;101336.96;115677;1193;59971;-80
2021/10/01 03:39:27;;;;;;;3.60;0.60;;;;;;;9.39;75.16;101342.80;115762;1192;74636;-80
2021/10/01 03:41:53;;;;;;;3.40;0.70;;;;;;;9.43;74.83;101338.83;115852;1192;70763;-80
2021/10/01 03:44:20;;;;;;;5.10;0.80;;;;;;;9.45;74.65;101336.44;115726;1193;72735;-80
2021/10/01 03:46:47;;;;;;;2.90;0.80;;;;;;;9.46;74.81;101340.94;115679;1192;60282;-80
2021/10/01 03:49:15;;;;;;;3.50;0.70;;;;;;;9.46;74.60;101337.07;115957;1192;60890;-80
2021/10/01 03:51:42;;;;;;;1.80;0.60;;;;;;;9.44;74.81;101337.64;115718;1192;74669;-81
2021/10/01 03:54:09;;;;;;;0.80;0.50;;;;;;;9.39;75.01;101330.12;115723;1193;72127;-81
2021/10/01 03:56:35;;;;;;;2.00;0.60;;;;;;;9.35;74.97;101328.91;115901;1192;73629;-80
2021/10/01 03:59:02;;;;;;;4.30;0.90;;;;;;;9.31;75.38;101327.92;115870;1192;59419;-80
2021/10/01 04:01:29;;;;;;;3.40;0.80;;;;;;;9.27;75.35;101326.40;115674;1193;58951;-80
2021/10/01 04:03:55;;;;;;;3.00;0.70;;;;;;;9.23;75.42;101324.82;115731;1192;75766;-80
2021/10/01 04:06:22;;;;;;;1.80;0.80;;;;;;;9.19;75.67;101321.69;115684;1192;70721;-80
2021/10/01 04:08:48;;;;;;;6.00;0.70;;;;;;;9.14;76.08;101313.90;115829;1192;72683;-80
2021/10/01 04:11:15;;;;;;;1.90;0.80;;;;;;;9.08;76.16;101313.64;115735;1192;61315;-80
2021/10/01 04:13:43;;;;;;;1.80;0.70;;;;;;;9.03;76.36;101316.06;115809;1192;60192;-81
2021/10/01 04:16:09;;;;;;;1.80;0.70;;;;;;;8.97;76.68;101313.98;115729;1192;75803;-80
2021/10/01 04:18:36;;;;;;;0.70;0.30;;;;;;;8.90;76.88;101310.93;115798;1192;72183;-80
2021/10/01 04:21:02;;;;;;;1.50;0.50;;;;;;;8.86;77.43;101311.48;115770;1192;71982;-80
2021/10/01 04:23:29;;;;;;;3.40;0.60;;;;;;;8.84;77.46;101307.63;115925;1192;58848;-84
2021/10/01 04:25:55;;;;;;;2.00;0.60;;;;;;;8.82;77.39;101302.05;115782;1192;59693;-81
2021/10/01 04:28:23;;;;;;;2.10;0.70;;;;;;;8.80;77.35;101306.09;115831;1192;59841;-82
2021/10/01 04:30:50;;;;;;;2.00;0.70;;;;;;;8.77;77.73;101305.11;115813;1192;71031;-82
2021/10/01 04:33:21;;;;;;;2.40;0.60;;;;;;;8.75;77.92;101304.61;115797;1192;72504;-82
2021/10/01 04:35:50;;;;;;;2.70;0.60;;;;;;;8.72;77.92;101301.54;115614;1193;61569;-81
2021/10/01 04:38:17;;;;;;;4.00;0.60;;;;;;;8.70;77.91;101299.46;115762;1193;59978;-81
2021/10/01 04:40:44;;;;;;;1.30;0.50;;;;;;;8.68;78.12;101298.55;115714;1192;75718;-80
2021/10/01 04:43:11;;;;;;;4.60;0.80;;;;;;;8.67;78.26;101297.09;115782;1192;72085;-80
2021/10/01 04:45:37;;;;;;;2.10;0.60;;;;;;;8.64;78.41;101297.71;115872;1192;73753;-80
2021/10/01 04:48:07;;;;;;;1.00;0.50;;;;;;;8.62;78.96;101295.49;115799;1193;60655;-75
2021/10/01 04:50:34;;;;;;;3.50;0.80;;;;;;;8.61;79.09;101295.02;115706;1192;60388;-75
2021/10/01 04:53:01;;;;;;;2.10;0.70;;;;;;;8.61;79.00;101295.71;115785;1192;74522;-75
2021/10/01 04:55:28;;;;;;;3.60;0.70;;;;;;;8.60;79.19;101293.33;115638;1192;71052;-75
2021/10/01 04:57:55;;;;;;;3.10;0.80;;;;;;;8.62;79.00;101292.33;115636;1192;71291;-75
2021/10/01 05:00:21;;;;;;;5.30;0.80;;;;;;;8.60;79.10;101290.59;115820;1192;61604;-75
2021/10/01 05:02:48;;;;;;;4.20;0.70;;;;;;;8.58;79.25;101287.02;115667;1193;60892;-75
2021/10/01 05:05:15;;;;;;;1.60;0.50;;;;;;;8.57;79.52;101287.62;115704;1192;75510;-76
2021/10/01 05:07:41;;;;;;;2.20;0.80;;;;;;;8.57;79.33;101288.14;115828;1192;71296;-76
2021/10/01 05:10:09;;;;;;;1.50;0.40;;;;;;;8.57;79.41;101288.88;115718;1192;72689;-75
2021/10/01 05:12:35;;;;;;;1.60;0.60;;;;;;;8.56;79.55;101294.08;115598;1193;60855;-76
2021/10/01 05:15:03;;;;;;;2.00;0.40;;;;;;;8.54;79.72;101295.34;115769;1193;59364;-75
2021/10/01 05:17:30;;;;;;;4.60;1.50;;;;;;;8.52;79.59;101293.75;115639;1192;75655;-75
2021/10/01 05:19:56;;;;;;;2.20;0.60;;;;;;;8.51;79.55;101292.98;115818;1192;71005;-74
2021/10/01 05:22:23;;;;;;;3.10;0.70;;;;;;;8.48;79.81;101293.29;115754;1192;58891;-75
2021/10/01 05:24:49;;;;;;;5.10;1.00;;;;;;;8.45;79.91;101300.72;115733;1192;63475;-75
2021/10/01 05:27:16;;;;;;;2.00;0.80;;;;;;;8.43;80.14;101298.51;115758;1193;58882;-75
2021/10/01 05:29:42;;;;;;;1.40;0.50;;;;;;;8.40;79.89;101293.48;115618;1192;75664;-76
2021/10/01 05:32:09;;;;;;;5.00;0.80;;;;;;;8.37;80.01;101293.69;115863;1193;72032;-75
2021/10/01 05:34:35;;;;;;;1.40;0.80;;;;;;;8.35;80.00;101294.25;115722;1193;59206;-75
2021/10/01 05:37:03;;;;;;;3.60;0.70;;;;;;;8.33;79.81;101290.41;115734;1192;61951;-76
2021/10/01 05:39:30;;;;;;;4.30;1.00;;;;;;;8.32;79.92;101290.02;115779;1192;60054;-75
2021/10/01 05:41:57;;;;;;;1.20;0.60;;;;;;;8.30;80.09;101286.27;115752;1193;75427;-75
2021/10/01 05:44:24;;;;;;;1.50;0.80;;;;;;;8.29;80.11;101288.01;115749;1193;70983;-75
2021/10/01 05:46:51;;;;;;;4.00;1.10;;;;;;;8.28;80.50;101289.50;115599;1193;71602;-76
2021/10/01 05:49:27;;;;;;;1.70;0.60;;;;;;;8.27;80.64;101283.25;115619;1194;60307;-74
2021/10/01 05:52:01;;;;;;;1.30;0.60;;;;;;;8.26;80.82;101287.36;115603;1193;59756;-74
2021/10/01 05:54:28;;;;;;;2.10;0.70;;;;;;;8.26;80.99;101287.42;115709;1193;75853;-74
2021/10/01 05:56:56;;;;;;;2.20;0.70;;;;;;;8.27;80.90;101284.44;115715;1193;71934;-75
2021/10/01 05:59:22;;;;;;;2.80;0.60;;;;;;;8.31;81.10;101283.54;115646;1193;73663;-75
2021/10/01 06:01:50;;;;;;;3.60;0.60;;;;;;;8.39;80.69;101282.80;115688;1193;63124;-75
2021/10/01 06:04:19;;;;;;;1.60;0.80;;;;;;;8.51;80.28;101287.29;115698;1193;60225;-74
2021/10/01 06:06:46;;;;;;;3.30;0.60;;;;;;;8.66;79.46;101284.86;115696;1193;59151;-74
2021/10/01 06:09:15;;;;;;;3.00;0.70;;;;;;;8.80;79.36;101285.77;115777;1192;59157;-74
2021/10/01 06:11:41;;;;;;;3.80;0.70;;;;;;;8.96;78.52;101284.56;115779;1192;72450;-73
2021/10/01 06:14:08;;;;;;;3.40;1.10;;;;;;;9.11;77.96;101288.72;115739;1193;61625;-73
2021/10/01 06:16:35;;;;;;;5.00;0.70;;;;;;;9.28;77.41;101290.46;115808;1192;59806;-73
2021/10/01 06:19:03;;;;;;;9.10;1.30;;;;;;;9.43;76.12;101286.09;115729;1192;75771;-73
2021/10/01 06:21:30;;;;;;;3.30;1.10;;;;;;;9.57;76.07;101286.98;115637;1194;72006;-73
2021/10/01 06:23:56;;;;;;;5.00;0.80;;;;;;;9.69;74.91;101287.06;115750;1192;73070;-73
2021/10/01 06:26:23;;;;;;;2.50;0.90;;;;;;;9.77;74.16;101284.98;115679;1193;60540;-73
2021/10/01 06:28:49;;;;;;;2.00;0.80;;;;;;;9.87;74.17;101281.52;115679;1192;58863;-73
2021/10/01 06:31:16;;;;;;;3.90;1.30;;;;;;;9.97;73.93;101276.98;115801;1193;59528;-73
2021/10/01 06:33:43;;;;;;;1.60;0.40;;;;;;;10.09;73.34;101275.65;115673;1193;58867;-73
2021/10/01 06:36:12;;;;;;;1.50;0.60;;;;;;;10.16;72.69;101270.48;115764;1192;73649;-73
2021/10/01 06:38:39;;;;;;;3.10;0.60;;;;;;;10.22;72.53;101270.05;115692;1193;59698;-73
2021/10/01 06:41:05;;;;;;;1.00;0.40;;;;;;;10.29;72.46;101268.10;115703;1193;60676;-73
2021/10/01 06:43:32;;;;;;;6.80;0.70;;;;;;;10.36;72.28;101269.88;115721;1192;75708;-73
2021/10/01 06:45:59;;;;;;;2.30;0.60;;;;;;;10.42;72.19;101274.14;115696;1193;59523;-73
2021/10/01 07:21:33;;;;;;;;;;;;;;;11.42;69.18;101268.53;115706;1193;60819;-75
2021/10/01 07:35:04;;;;;;;;;;;;;;;11.88;69.31;101272.63;115856;1193;60127;-75
2021/10/01 08:18:52;;;;;;;1.80;0.80;;;;;;;12.81;63.33;101259.98;115744;1193;74542;-76
2021/10/01 08:21:25;;;;;;;2.40;0.50;;;;;;;12.91;63.42;101257.77;115843;1193;72659;-76
2021/10/01 08:24:10;;;;;;;2.50;0.60;;;;;;;13.02;62.66;101253.34;115760;1193;72673;-76
2021/10/01 08:26:36;;;;;;;1.90;0.60;;;;;;;13.09;62.67;101251.45;115679;1193;59051;-76
2021/10/01 08:29:03;;;;;;;1.40;0.50;;;;;;;13.15;62.00;101253.69;115650;1194;58938;-76
2021/10/01 08:31:29;;;;;;;2.10;0.90;;;;;;;13.20;61.71;101254.30;115803;1192;58919;-76
2021/10/01 08:33:56;;;;;;;2.30;0.50;;;;;;;13.25;62.26;101248.45;115665;1193;70503;-76
2021/10/01 08:36:23;;;;;;;0.70;0.40;;;;;;;13.29;61.94;101251.72;115643;1194;72524;-76
2021/10/01 08:38:50;;;;;;;2.50;0.50;;;;;;;13.32;61.93;101247.81;115705;1193;61056;-76
2021/10/01 08:41:17;;;;;;;2.90;0.50;;;;;;;13.33;61.43;101248.78;115723;1193;60277;-76
2021/10/01 08:43:44;;;;;;;1.50;0.50;;;;;;;13.34;61.66;101247.60;115665;1193;74587;-75
2021/10/01 08:46:12;;;;;;;3.20;0.60;;;;;;;13.38;61.98;101244.39;115711;1193;71144;-75
2021/10/01 08:48:39;;;;;;;1.30;0.60;;;;;;;13.45;61.80;101241.67;115794;1193;73572;-76
2021/10/01 08:51:09;;;;;;;2.00;0.70;;;;;;;13.49;61.32;101240.11;115667;1193;60051;-75
2021/10/01 08:53:36;;;;;;;1.90;0.60;;;;;;;13.55;60.97;101236.02;115730;1193;60218;-75
2021/10/01 08:56:08;;;;;;;1.40;0.60;;;;;;;13.61;60.42;101233.39;115895;1193;75806;-76
2021/10/01 08:58:34;;;;;;;6.00;0.70;;;;;;;13.66;60.36;101227.58;115846;1193;71091;-76
2021/10/01 09:01:03;;;;;;;0.70;0.50;;;;;;;13.74;60.08;101223.17;115686;1193;73577;-75
2021/10/01 09:03:30;;;;;;;3.00;0.60;;;;;;;13.81;60.14;101222.77;115707;1193;60176;-75
2021/10/01 09:05:57;;;;;;;6.30;1.20;;;;;;;13.89;59.23;101222.73;115724;1186;60255;-75
2021/10/01 09:08:24;;;;;;;1.90;0.50;;;;;;;13.97;59.21;101221.81;115843;1192;74368;-75
2021/10/01 09:11:06;;;;;;;1.20;0.40;;;;;;;14.10;59.81;101216.13;115638;1193;70986;-76
2021/10/01 09:13:34;;;;;;;3.80;0.90;;;;;;;14.24;59.17;101214.42;115659;1193;72680;-76
2021/10/01 09:16:03;;;;;;;1.80;0.40;;;;;;;14.32;58.03;101212.21;115836;1192;61113;-75
2021/10/01 09:18:32;;;;;;;4.00;0.60;;;;;;;14.43;58.17;101212.70;115796;1192;61649;-76
2021/10/01 09:21:08;;;;;;;2.40;0.40;;;;;;;14.51;57.79;101209.92;115820;1192;75840;-76
2021/10/01 09:23:42;;;;;;;4.70;1.00;;;;;;;14.66;56.91;101204.37;115712;1193;71055;-76
2021/10/01 09:26:14;;;;;;;2.70;0.60;;;;;;;14.91;57.32;101204.52;115863;1192;72458;-76
2021/10/01 09:28:44;;;;;;;2.20;0.60;;;;;;;15.09;55.83;101200.67;115816;1192;61263;-76
2021/10/01 09:31:34;;;;;;;1.60;0.40;;;;;;;15.34;56.44;101198.23;115715;1192;60913;-76
2021/10/01 09:34:03;;;;;;;4.10;0.60;;;;;;;15.60;54.91;101193.61;115746;1193;75612;-76
2021/10/01 09:36:30;;;;;;;3.10;0.60;;;;;;;15.81;54.46;101192.83;115817;1193;71074;-76
2021/10/01 09:38:58;;;;;;;2.30;0.50;;;;;;;16.01;53.20;101188.98;115806;1193;73721;-76
2021/10/01 09:41:26;;;;;;;1.90;0.40;;;;;;;16.18;53.36;101183.54;115855;1192;60328;-76
2021/10/01 09:44:05;;;;;;;2.10;0.60;;;;;;;16.28;52.83;101175.78;115700;1193;60803;-76
2021/10/01 09:46:36;;;;;;;6.70;0.70;;;;;;;16.41;53.23;101173.40;115696;1193;74714;-76
2021/10/01 09:49:03;;;;;;;3.00;0.40;;;;;;;16.39;51.42;101169.06;115828;1192;69871;-76
2021/10/01 09:51:30;;;;;;;1.10;0.40;;;;;;;16.31;50.86;101169.41;115642;1193;72549;-75
2021/10/01 09:53:57;;;;;;;5.50;1.00;;;;;;;16.21;51.00;101160.28;115659;1193;60212;-75
2021/10/01 09:56:30;;;;;;;2.80;1.00;;;;;;;16.07;50.29;101159.32;115687;1193;61056;-75
2021/10/01 09:59:04;;;;;;;3.20;1.30;;;;;;;15.99;50.60;101150.02;115799;1192;75834;-75
2021/10/01 10:01:31;;;;;;;2.90;0.50;;;;;;;15.98;51.03;101151.09;115729;1193;70734;-75
2021/10/01 10:04:12;;;;;;;3.80;0.40;;;;;;;15.99;51.56;101144.88;115864;1193;73146;-76
2021/10/01 10:06:46;;;;;;;1.10;0.70;;;;;;;16.11;52.61;101143.24;115712;1192;61347;-76
2021/10/01 10:09:13;;;;;;;1.60;0.50;;;;;;;16.20;51.37;101141.41;115698;1193;61219;-76
2021/10/01 10:11:42;;;;;;;1.80;0.30;;;;;;;16.26;50.90;101134.71;115765;1192;76150;-76
2021/10/01 10:14:10;;;;;;;3.00;0.60;;;;;;;16.33;51.13;101129.70;115695;1193;70087;-76
2021/10/01 10:16:38;;;;;;;3.20;0.70;;;;;;;16.43;51.00;101128.55;115692;1193;73458;-76
2021/10/01 10:19:07;;;;;;;0.90;0.30;;;;;;;16.55;50.85;101128.77;115821;1193;60905;-76
2021/10/01 10:21:35;;;;;;;2.70;0.50;;;;;;;16.74;51.05;101124.80;115654;1193;59579;-76
2021/10/01 10:24:03;;;;;;;2.20;0.50;;;;;;;16.89;50.41;101119.64;115716;1193;74579;-76
2021/10/01 10:26:31;;;;;;;3.00;0.50;;;;;;;16.98;50.11;101115.18;115624;1193;72160;-76
2021/10/01 10:29:00;;;;;;;2.70;0.40;;;;;;;17.02;49.77;101109.94;115651;1193;72870;-75
2021/10/01 10:31:31;;;;;;;1.10;0.30;;;;;;;17.04;49.48;101102.06;115736;1193;61042;-76
2021/10/01 10:33:57;;;;;;;2.50;0.50;;;;;;;17.02;48.96;101095.39;115833;1192;58979;-75
2021/10/01 10:36:41;;;;;;;3.30;0.50;;;;;;;16.99;49.08;101094.48;115836;1193;74742;-76
2021/10/01 10:39:10;;;;;;;2.00;0.40;;;;;;;17.01;48.81;101101.90;115881;1193;70568;-76
2021/10/01 10:41:45;;;;;;;2.80;0.50;;;;;;;17.08;48.53;101094.15;115775;1193;73615;-76
2021/10/01 10:44:14;;;;;;;2.60;0.60;;;;;;;17.14;48.61;101093.76;115791;1192;60325;-76
2021/10/01 10:46:42;;;;;;;1.00;0.40;;;;;;;17.23;48.80;101094.40;115787;1193;61448;-76
2021/10/01 10:49:14;;;;;;;1.80;0.50;;;;;;;17.31;48.37;101091.70;115717;1193;75582;-76
2021/10/01 10:52:10;;;;;;;1.90;0.50;;;;;;;17.39;48.00;101090.61;115787;1193;72273;-76
2021/10/01 10:54:52;;;;;;;1.90;0.40;;;;;;;17.53;48.35;101082.77;115784;1192;73603;-77
2021/10/01 10:57:28;;;;;;;2.40;0.30;;;;;;;17.79;47.54;101081.45;115677;1194;61158;-76
2021/10/01 11:00:03;;;;;;;2.50;0.60;;;;;;;17.88;46.57;101083.73;115788;1192;59323;-76
2021/10/01 11:02:44;;;;;;;0.50;0.30;;;;;;;17.90;46.36;101081.67;115673;1186;75623;-76
2021/10/01 11:05:26;;;;;;;2.30;0.50;;;;;;;17.96;46.45;101078.70;115720;1193;72078;-76
2021/10/01 11:07:58;;;;;;;3.40;0.80;;;;;;;17.98;45.59;101073.25;115671;1193;72666;-76
2021/10/01 11:10:40;;;;;;;4.00;0.40;;;;;;;18.02;45.53;101072.53;115699;1193;61652;-76
2021/10/01 11:13:18;;;;;;;2.00;0.40;;;;;;;18.13;45.75;101067.91;115694;1193;60282;-77
2021/10/01 11:16:07;;;;;;;1.20;0.40;;;;;;;18.22;45.38;101064.30;115671;1193;74732;-76
2021/10/01 11:18:57;;;;;;;2.50;0.60;;;;;;;18.32;44.91;101062.59;115822;1193;71109;-76
2021/10/01 11:24:09;;;;;;;1.80;0.50;;;;;;;18.57;44.09;101061.49;115691;1193;59079;-76
2021/10/01 11:26:41;;;;;;;1.60;0.30;;;;;;;18.72;44.15;101058.77;115711;1193;60089;-76
2021/10/01 11:29:20;;;;;;;1.30;0.40;;;;;;;18.89;43.72;101059.14;115808;1193;74710;-76
2021/10/01 11:31:46;;;;;;;2.80;0.70;;;;;;;19.10;43.73;101055.59;115716;1193;71775;-77
2021/10/01 11:34:13;;;;;;;1.70;0.40;;;;;;;19.30;42.82;101052.64;115788;1192;72003;-77
2021/10/01 11:36:40;;;;;;;1.80;0.40;;;;;;;19.45;42.92;101043.45;115720;1193;60381;-76
2021/10/01 11:39:14;;;;;;;1.70;0.60;;;;;;;19.57;41.72;101038.66;115711;1193;60022;-75
2021/10/01 11:41:45;;;;;;;2.00;0.50;;;;;;;19.72;40.91;101035.36;115772;1193;75589;-76
2021/10/01 11:44:13;;;;;;;3.20;0.60;;;;;;;20.01;39.95;101036.11;115811;1192;72322;-75
2021/10/01 11:46:44;;;;;;;3.50;0.50;;;;;;;20.32;38.41;101030.65;115675;1193;73907;-76
2021/10/01 11:49:19;;;;;;;4.60;0.50;;;;;;;20.68;36.44;101021.57;115644;1193;60007;-76
2021/10/01 11:52:12;;;;;;;1.60;0.50;;;;;;;21.14;35.89;101022.39;115774;1193;59957;-76
2021/10/01 11:54:54;;;;;;;2.00;0.30;;;;;;;21.98;34.88;101015.47;115701;1193;74781;-76
2021/10/01 11:57:21;;;;;;;1.50;0.40;;;;;;;22.72;32.87;101018.02;115809;1193;72079;-76
2021/10/01 11:59:57;;;;;;;2.40;0.30;;;;;;;23.23;31.84;101008.32;115756;1193;72616;-77
2021/10/01 12:02:32;;;;;;;3.00;0.80;;;;;;;23.76;30.65;101000.76;115674;1193;60054;-77
2021/10/01 12:05:17;;;;;;;1.30;0.40;;;;;;;24.01;30.02;100993.30;115729;1193;60944;-77
2021/10/01 12:07:46;;;;;;;2.10;0.50;;;;;;;24.36;29.73;100991.09;115642;1193;75582;-77
2021/10/01 12:10:13;;;;;;;1.40;0.40;;;;;;;24.61;29.12;100985.65;115748;1193;71665;-77
2021/10/01 12:13:00;;;;;;;2.60;0.40;;;;;;;25.12;29.65;100978.80;115728;1192;72633;-77
2021/10/01 12:15:54;;;;;;;2.90;0.40;;;;;;;25.64;27.68;100973.83;115717;1193;61446;-77
2021/10/01 12:18:40;;;;;;;1.50;0.50;;;;;;;26.40;26.47;100968.27;115786;1187;60373;-77
2021/10/01 12:21:19;;;;;;;1.60;0.40;;;;;;;26.81;25.22;100964.93;115793;1193;75623;-77
2021/10/01 12:23:49;;;;;;;0.60;0.20;;;;;;;27.39;25.09;100952.98;115803;1193;71170;-77
2021/10/01 12:26:27;;;;;;;2.20;0.80;;;;;;;28.09;24.57;100956.04;115761;1192;72599;-76
2021/10/01 12:29:17;;;;;;;2.40;0.90;;;;;;;28.44;22.82;100962.77;115757;1193;61457;-76
2021/10/01 12:31:56;;;;;;;2.60;0.50;;;;;;;28.32;22.76;100958.64;115691;1193;60147;-76
2021/10/01 12:34:35;;;;;;;1.10;0.40;;;;;;;28.73;23.23;100952.65;115731;1193;75744;-76
2021/10/01 12:37:06;;;;;;;1.80;0.40;;;;;;;28.82;22.33;100953.14;115742;1193;71150;-75
2021/10/01 12:39:35;;;;;;;1.50;0.50;;;;;;;29.27;22.32;100949.00;115679;1193;72565;-76
2021/10/01 12:42:03;;;;;;;1.40;0.30;;;;;;;29.50;21.43;100945.16;115674;1192;61706;-76
2021/10/01 12:44:33;;;;;;;3.00;0.50;;;;;;;29.70;21.10;100942.73;115744;1193;60208;-76
2021/10/01 12:47:09;;;;;;;1.20;0.40;;;;;;;30.01;21.07;100945.14;115662;1193;74808;-77
2021/10/01 12:49:37;;;;;;;2.20;0.70;;;;;;;30.40;20.14;100944.91;115720;1193;73252;-76
2021/10/01 12:52:11;;;;;;;4.10;0.30;;;;;;;30.46;19.68;100944.91;115777;1193;74221;-76
2021/10/01 12:54:50;;;;;;;2.90;0.50;;;;;;;30.73;19.28;100945.65;115687;1193;60963;-77
2021/10/01 12:57:32;;;;;;;1.50;0.40;;;;;;;30.86;19.31;100937.79;115692;1192;60180;-77
2021/10/01 13:00:12;;;;;;;1.60;0.50;;;;;;;31.00;19.18;100942.66;115708;1193;74666;-75
2021/10/01 13:02:48;;;;;;;1.10;0.30;;;;;;;31.00;18.89;100934.51;115674;1193;72105;-75
2021/10/01 13:05:20;;;;;;;1.80;0.40;;;;;;;31.19;18.68;100937.20;115631;1193;72219;-75